sensor_id;sensor_type;location;lat;lon;timestamp;pressure;altitude;pressure_sealevel;temperature;humidity
47556;BME280;33291;46.222;26.460;2022-07-21T00:00:22;96707.50;;;17.47;72.71
47556;BME280;33291;46.222;26.460;2022-07-21T00:02:48;96709.00;;;17.41;73.02
47556;BME280;33291;46.222;26.460;2022-07-21T00:05:14;96705.56;;;17.40;72.91
47556;BME280;33291;46.222;26.460;2022-07-21T00:07:40;96704.09;;;17.38;72.88
47556;BME280;33291;46.222;26.460;2022-07-21T00:10:06;96706.09;;;17.36;73.01
47556;BME280;33291;46.222;26.460;2022-07-21T00:12:32;96699.19;;;17.35;72.82
47556;BME280;33291;46.222;26.460;2022-07-21T00:14:58;96700.25;;;17.26;72.90
47556;BME280;33291;46.222;26.460;2022-07-21T00:17:23;96713.41;;;17.26;72.78
47556;BME280;33291;46.222;26.460;2022-07-21T00:19:49;96694.19;;;17.25;72.74
47556;BME280;33291;46.222;26.460;2022-07-21T00:22:14;96690.50;;;17.11;73.07
47556;BME280;33291;46.222;26.460;2022-07-21T00:24:40;96694.22;;;17.17;72.91
47556;BME280;33291;46.222;26.460;2022-07-21T00:27:05;96703.13;;;17.16;72.93
47556;BME280;33291;46.222;26.460;2022-07-21T00:29:31;96703.59;;;17.19;72.82
47556;BME280;33291;46.222;26.460;2022-07-21T00:31:57;96701.94;;;17.18;72.89
47556;BME280;33291;46.222;26.460;2022-07-21T00:34:22;96703.94;;;17.16;72.96
47556;BME280;33291;46.222;26.460;2022-07-21T00:36:48;96704.28;;;17.13;73.27
47556;BME280;33291;46.222;26.460;2022-07-21T00:39:13;96704.94;;;17.15;73.29
47556;BME280;33291;46.222;26.460;2022-07-21T00:41:39;96703.94;;;17.16;72.94
47556;BME280;33291;46.222;26.460;2022-07-21T00:44:05;96698.22;;;17.13;73.23
47556;BME280;33291;46.222;26.460;2022-07-21T00:46:30;96703.31;;;17.14;73.17
47556;BME280;33291;46.222;26.460;2022-07-21T00:48:56;96683.13;;;17.07;72.99
47556;BME280;33291;46.222;26.460;2022-07-21T00:51:22;96688.84;;;17.10;72.99
47556;BME280;33291;46.222;26.460;2022-07-21T00:53:47;96692.13;;;17.12;72.90
47556;BME280;33291;46.222;26.460;2022-07-21T00:56:15;96672.13;;;17.03;73.08
47556;BME280;33291;46.222;26.460;2022-07-21T00:58:41;96682.28;;;17.06;72.83
47556;BME280;33291;46.222;26.460;2022-07-21T01:01:07;96664.75;;;16.98;73.04
47556;BME280;33291;46.222;26.460;2022-07-21T01:03:32;96678.03;;;17.05;72.88
47556;BME280;33291;46.222;26.460;2022-07-21T01:05:58;96683.69;;;16.94;73.44
47556;BME280;33291;46.222;26.460;2022-07-21T01:08:24;96678.47;;;16.85;73.97
47556;BME280;33291;46.222;26.460;2022-07-21T01:10:51;96683.75;;;16.77;74.09
47556;BME280;33291;46.222;26.460;2022-07-21T01:13:17;96682.47;;;16.73;74.19
47556;BME280;33291;46.222;26.460;2022-07-21T01:15:42;96682.31;;;16.75;74.07
47556;BME280;33291;46.222;26.460;2022-07-21T01:18:09;96677.84;;;16.75;74.18
47556;BME280;33291;46.222;26.460;2022-07-21T01:20:35;96673.75;;;16.73;74.02
47556;BME280;33291;46.222;26.460;2022-07-21T01:23:04;96671.94;;;16.73;73.74
47556;BME280;33291;46.222;26.460;2022-07-21T01:25:30;96680.00;;;16.72;73.64
47556;BME280;33291;46.222;26.460;2022-07-21T01:27:55;96679.69;;;16.75;73.54
47556;BME280;33291;46.222;26.460;2022-07-21T01:30:21;96686.72;;;16.74;73.63
47556;BME280;33291;46.222;26.460;2022-07-21T01:32:46;96682.47;;;16.73;73.75
47556;BME280;33291;46.222;26.460;2022-07-21T01:35:14;96682.50;;;16.65;74.14
47556;BME280;33291;46.222;26.460;2022-07-21T01:37:42;96686.78;;;16.66;74.25
47556;BME280;33291;46.222;26.460;2022-07-21T01:40:09;96681.53;;;16.66;74.20
47556;BME280;33291;46.222;26.460;2022-07-21T01:42:53;96680.50;;;16.67;73.90
47556;BME280;33291;46.222;26.460;2022-07-21T01:45:19;96688.94;;;16.62;74.52
47556;BME280;33291;46.222;26.460;2022-07-21T01:47:45;96686.28;;;16.62;74.42
47556;BME280;33291;46.222;26.460;2022-07-21T01:50:12;96690.75;;;16.62;74.54
47556;BME280;33291;46.222;26.460;2022-07-21T01:52:38;96684.19;;;16.58;74.67
47556;BME280;33291;46.222;26.460;2022-07-21T01:55:04;96686.19;;;16.56;74.70
47556;BME280;33291;46.222;26.460;2022-07-21T01:57:29;96684.75;;;16.45;75.12
47556;BME280;33291;46.222;26.460;2022-07-21T01:59:55;96684.91;;;16.43;75.15
47556;BME280;33291;46.222;26.460;2022-07-21T02:02:21;96681.00;;;16.39;74.65
47556;BME280;33291;46.222;26.460;2022-07-21T02:04:48;96678.50;;;16.46;74.38
47556;BME280;33291;46.222;26.460;2022-07-21T02:07:14;96688.19;;;16.45;74.66
47556;BME280;33291;46.222;26.460;2022-07-21T02:09:40;96677.03;;;16.43;74.78
47556;BME280;33291;46.222;26.460;2022-07-21T02:12:06;96678.69;;;16.44;74.95
47556;BME280;33291;46.222;26.460;2022-07-21T02:14:31;96675.09;;;16.37;75.17
47556;BME280;33291;46.222;26.460;2022-07-21T02:16:57;96681.66;;;16.33;75.34
47556;BME280;33291;46.222;26.460;2022-07-21T02:19:22;96682.53;;;16.25;75.57
47556;BME280;33291;46.222;26.460;2022-07-21T02:21:48;96679.72;;;16.27;75.27
47556;BME280;33291;46.222;26.460;2022-07-21T02:24:13;96685.63;;;16.29;75.35
47556;BME280;33291;46.222;26.460;2022-07-21T02:26:39;96679.56;;;16.28;75.53
47556;BME280;33291;46.222;26.460;2022-07-21T02:29:05;96673.00;;;16.24;75.32
47556;BME280;33291;46.222;26.460;2022-07-21T02:31:30;96680.38;;;16.29;75.46
47556;BME280;33291;46.222;26.460;2022-07-21T02:33:56;96682.34;;;16.27;75.80
47556;BME280;33291;46.222;26.460;2022-07-21T02:36:22;96675.66;;;16.16;76.09
47556;BME280;33291;46.222;26.460;2022-07-21T02:38:47;96685.84;;;16.19;75.92
47556;BME280;33291;46.222;26.460;2022-07-21T02:41:13;96683.03;;;16.21;75.82
47556;BME280;33291;46.222;26.460;2022-07-21T02:43:38;96688.28;;;16.21;75.60
47556;BME280;33291;46.222;26.460;2022-07-21T02:46:04;96688.13;;;16.22;75.64
47556;BME280;33291;46.222;26.460;2022-07-21T02:48:30;96688.28;;;16.21;75.54
47556;BME280;33291;46.222;26.460;2022-07-21T02:50:55;96690.63;;;16.15;75.79
47556;BME280;33291;46.222;26.460;2022-07-21T02:53:21;96692.09;;;16.10;76.01
47556;BME280;33291;46.222;26.460;2022-07-21T02:55:49;96698.50;;;16.07;76.38
47556;BME280;33291;46.222;26.460;2022-07-21T02:58:23;96708.22;;;16.07;76.34
47556;BME280;33291;46.222;26.460;2022-07-21T03:01:00;96702.44;;;16.03;76.61
47556;BME280;33291;46.222;26.460;2022-07-21T03:03:28;96703.78;;;15.99;76.75
47556;BME280;33291;46.222;26.460;2022-07-21T03:05:55;96699.03;;;15.94;76.82
47556;BME280;33291;46.222;26.460;2022-07-21T03:08:21;96686.56;;;15.80;76.85
47556;BME280;33291;46.222;26.460;2022-07-21T03:10:48;96705.31;;;15.85;77.16
47556;BME280;33291;46.222;26.460;2022-07-21T03:13:13;96711.69;;;15.91;77.03
47556;BME280;33291;46.222;26.460;2022-07-21T03:15:39;96709.03;;;15.91;77.04
47556;BME280;33291;46.222;26.460;2022-07-21T03:18:05;96701.50;;;15.88;77.21
47556;BME280;33291;46.222;26.460;2022-07-21T03:20:34;96706.41;;;15.91;77.10
47556;BME280;33291;46.222;26.460;2022-07-21T03:23:00;96709.38;;;15.88;77.27
47556;BME280;33291;46.222;26.460;2022-07-21T03:25:26;96711.03;;;15.89;77.44
47556;BME280;33291;46.222;26.460;2022-07-21T03:27:52;96709.38;;;15.88;77.28
47556;BME280;33291;46.222;26.460;2022-07-21T03:30:19;96710.22;;;15.88;77.35
47556;BME280;33291;46.222;26.460;2022-07-21T03:32:45;96710.22;;;15.88;77.50
47556;BME280;33291;46.222;26.460;2022-07-21T03:35:12;96711.38;;;15.86;77.78
47556;BME280;33291;46.222;26.460;2022-07-21T03:37:47;96702.50;;;15.78;77.93
47556;BME280;33291;46.222;26.460;2022-07-21T03:40:16;96719.59;;;15.83;78.10
47556;BME280;33291;46.222;26.460;2022-07-21T03:42:42;96712.50;;;15.83;77.77
47556;BME280;33291;46.222;26.460;2022-07-21T03:45:08;96716.63;;;15.86;78.02
47556;BME280;33291;46.222;26.460;2022-07-21T03:47:34;96710.72;;;15.84;77.72
47556;BME280;33291;46.222;26.460;2022-07-21T03:50:00;96716.75;;;15.92;77.70
47556;BME280;33291;46.222;26.460;2022-07-21T03:52:26;96724.47;;;15.94;77.46
47556;BME280;33291;46.222;26.460;2022-07-21T03:54:51;96717.94;;;15.90;77.56
47556;BME280;33291;46.222;26.460;2022-07-21T03:57:37;96724.97;;;15.97;77.50
47556;BME280;33291;46.222;26.460;2022-07-21T04:00:10;96726.25;;;16.02;77.50
47556;BME280;33291;46.222;26.460;2022-07-21T04:02:36;96718.41;;;15.93;78.67
47556;BME280;33291;46.222;26.460;2022-07-21T04:05:03;96718.25;;;15.95;78.17
47556;BME280;33291;46.222;26.460;2022-07-21T04:07:29;96718.88;;;15.97;78.25
47556;BME280;33291;46.222;26.460;2022-07-21T04:09:55;96708.53;;;15.95;77.92
47556;BME280;33291;46.222;26.460;2022-07-21T04:12:25;96717.88;;;16.06;77.80
47556;BME280;33291;46.222;26.460;2022-07-21T04:14:50;96718.03;;;16.13;77.49
47556;BME280;33291;46.222;26.460;2022-07-21T04:17:16;96725.41;;;16.17;77.41
47556;BME280;33291;46.222;26.460;2022-07-21T04:19:42;96697.19;;;16.03;77.91
47556;BME280;33291;46.222;26.460;2022-07-21T04:22:07;96721.66;;;16.12;77.79
47556;BME280;33291;46.222;26.460;2022-07-21T04:24:33;96719.66;;;16.22;77.61
47556;BME280;33291;46.222;26.460;2022-07-21T04:26:58;96712.25;;;16.26;77.16
47556;BME280;33291;46.222;26.460;2022-07-21T04:29:24;96718.13;;;16.36;76.85
47556;BME280;33291;46.222;26.460;2022-07-21T04:31:50;96712.19;;;16.42;76.90
47556;BME280;33291;46.222;26.460;2022-07-21T04:34:15;96708.88;;;16.48;76.91
47556;BME280;33291;46.222;26.460;2022-07-21T04:36:41;96717.72;;;16.56;76.38
47556;BME280;33291;46.222;26.460;2022-07-21T04:39:06;96711.78;;;16.62;76.10
47556;BME280;33291;46.222;26.460;2022-07-21T04:41:32;96709.44;;;16.67;75.91
47556;BME280;33291;46.222;26.460;2022-07-21T04:43:58;96715.66;;;16.74;75.49
47556;BME280;33291;46.222;26.460;2022-07-21T04:46:25;96709.88;;;16.79;75.42
47556;BME280;33291;46.222;26.460;2022-07-21T04:48:51;96728.13;;;16.89;75.59
47556;BME280;33291;46.222;26.460;2022-07-21T04:51:16;96716.25;;;16.93;75.39
47556;BME280;33291;46.222;26.460;2022-07-21T04:53:42;96720.47;;;17.02;75.12
47556;BME280;33291;46.222;26.460;2022-07-21T04:56:08;96715.16;;;17.10;75.05
47556;BME280;33291;46.222;26.460;2022-07-21T04:58:33;96715.28;;;17.17;75.01
47556;BME280;33291;46.222;26.460;2022-07-21T05:00:59;96716.22;;;17.24;75.28
47556;BME280;33291;46.222;26.460;2022-07-21T05:03:24;96711.25;;;17.29;75.00
47556;BME280;33291;46.222;26.460;2022-07-21T05:05:50;96708.75;;;17.36;74.64
47556;BME280;33291;46.222;26.460;2022-07-21T05:08:16;96716.09;;;17.40;74.49
47556;BME280;33291;46.222;26.460;2022-07-21T05:10:41;96692.09;;;17.35;74.47
47556;BME280;33291;46.222;26.460;2022-07-21T05:13:07;96713.16;;;17.58;74.37
47556;BME280;33291;46.222;26.460;2022-07-21T05:15:32;96703.22;;;17.69;74.32
47556;BME280;33291;46.222;26.460;2022-07-21T05:17:58;96701.13;;;17.79;73.90
47556;BME280;33291;46.222;26.460;2022-07-21T05:20:23;96694.50;;;17.83;73.31
47556;BME280;33291;46.222;26.460;2022-07-21T05:22:49;96710.19;;;18.00;72.95
47556;BME280;33291;46.222;26.460;2022-07-21T05:25:14;96704.63;;;18.09;72.03
47556;BME280;33291;46.222;26.460;2022-07-21T05:27:40;96699.28;;;18.18;71.53
47556;BME280;33291;46.222;26.460;2022-07-21T05:30:06;96706.91;;;18.27;71.37
47556;BME280;33291;46.222;26.460;2022-07-21T05:32:32;96703.47;;;18.42;70.84
47556;BME280;33291;46.222;26.460;2022-07-21T05:34:57;96706.91;;;18.57;70.06
47556;BME280;33291;46.222;26.460;2022-07-21T05:37:23;96700.50;;;18.67;69.49
47556;BME280;33291;46.222;26.460;2022-07-21T05:39:49;96706.31;;;18.77;68.97
47556;BME280;33291;46.222;26.460;2022-07-21T05:42:14;96701.28;;;18.82;68.88
47556;BME280;33291;46.222;26.460;2022-07-21T05:44:40;96702.94;;;18.98;68.16
47556;BME280;33291;46.222;26.460;2022-07-21T05:47:05;96704.50;;;19.14;66.91
47556;BME280;33291;46.222;26.460;2022-07-21T05:49:31;96707.28;;;19.27;66.34
47556;BME280;33291;46.222;26.460;2022-07-21T05:51:56;96702.75;;;19.43;65.14
47556;BME280;33291;46.222;26.460;2022-07-21T05:54:22;96708.75;;;19.58;63.40
47556;BME280;33291;46.222;26.460;2022-07-21T05:56:47;96694.22;;;19.69;62.80
47556;BME280;33291;46.222;26.460;2022-07-21T05:59:13;96704.84;;;19.76;63.65
47556;BME280;33291;46.222;26.460;2022-07-21T06:01:38;96692.78;;;19.88;62.82
47556;BME280;33291;46.222;26.460;2022-07-21T06:04:04;96698.53;;;19.98;62.14
47556;BME280;33291;46.222;26.460;2022-07-21T06:06:29;96688.41;;;20.09;60.83
47556;BME280;33291;46.222;26.460;2022-07-21T06:08:55;96693.78;;;20.22;60.49
47556;BME280;33291;46.222;26.460;2022-07-21T06:11:21;96701.19;;;20.33;59.90
47556;BME280;33291;46.222;26.460;2022-07-21T06:13:47;96697.56;;;20.48;59.38
47556;BME280;33291;46.222;26.460;2022-07-21T06:16:13;96694.97;;;20.54;59.25
47556;BME280;33291;46.222;26.460;2022-07-21T06:18:38;96686.66;;;20.64;59.22
47556;BME280;33291;46.222;26.460;2022-07-21T06:21:05;96687.09;;;20.68;58.08
47556;BME280;33291;46.222;26.460;2022-07-21T06:23:30;96696.94;;;20.81;57.66
47556;BME280;33291;46.222;26.460;2022-07-21T06:25:56;96692.03;;;20.84;57.39
47556;BME280;33291;46.222;26.460;2022-07-21T06:28:22;96690.03;;;20.93;57.55
47556;BME280;33291;46.222;26.460;2022-07-21T06:30:48;96684.53;;;21.01;57.09
47556;BME280;33291;46.222;26.460;2022-07-21T06:33:14;96690.47;;;21.10;56.59
47556;BME280;33291;46.222;26.460;2022-07-21T06:35:40;96695.19;;;21.15;56.63
47556;BME280;33291;46.222;26.460;2022-07-21T06:38:06;96681.13;;;21.21;56.72
47556;BME280;33291;46.222;26.460;2022-07-21T06:40:32;96678.31;;;21.29;56.45
47556;BME280;33291;46.222;26.460;2022-07-21T06:42:57;96671.56;;;21.33;55.78
47556;BME280;33291;46.222;26.460;2022-07-21T06:45:24;96673.81;;;21.36;55.92
47556;BME280;33291;46.222;26.460;2022-07-21T06:47:50;96682.16;;;21.46;56.06
47556;BME280;33291;46.222;26.460;2022-07-21T06:50:16;96669.19;;;21.52;55.97
47556;BME280;33291;46.222;26.460;2022-07-21T06:52:41;96675.91;;;21.61;55.75
47556;BME280;33291;46.222;26.460;2022-07-21T06:55:08;96672.44;;;21.67;55.98
47556;BME280;33291;46.222;26.460;2022-07-21T06:57:35;96658.34;;;21.73;55.71
47556;BME280;33291;46.222;26.460;2022-07-21T07:00:04;96664.03;;;21.90;54.33
47556;BME280;33291;46.222;26.460;2022-07-21T07:02:30;96659.31;;;21.92;54.80
47556;BME280;33291;46.222;26.460;2022-07-21T07:04:55;96634.69;;;21.85;54.68
47556;BME280;33291;46.222;26.460;2022-07-21T07:07:21;96662.38;;;22.09;53.74
47556;BME280;33291;46.222;26.460;2022-07-21T07:09:46;96661.97;;;22.12;53.74
47556;BME280;33291;46.222;26.460;2022-07-21T07:12:12;96662.75;;;22.13;53.92
47556;BME280;33291;46.222;26.460;2022-07-21T07:14:37;96658.06;;;22.22;54.05
47556;BME280;33291;46.222;26.460;2022-07-21T07:17:03;96649.69;;;22.31;54.62
47556;BME280;33291;46.222;26.460;2022-07-21T07:19:29;96652.06;;;22.46;54.02
47556;BME280;33291;46.222;26.460;2022-07-21T07:21:55;96655.69;;;22.59;53.40
47556;BME280;33291;46.222;26.460;2022-07-21T07:24:20;96626.91;;;22.56;53.28
47556;BME280;33291;46.222;26.460;2022-07-21T07:26:46;96655.16;;;22.82;53.10
47556;BME280;33291;46.222;26.460;2022-07-21T07:29:12;96650.84;;;22.87;52.52
47556;BME280;33291;46.222;26.460;2022-07-21T07:31:38;96646.53;;;22.93;52.03
47556;BME280;33291;46.222;26.460;2022-07-21T07:34:04;96646.47;;;23.00;51.41
47556;BME280;33291;46.222;26.460;2022-07-21T07:36:29;96638.88;;;23.10;50.21
47556;BME280;33291;46.222;26.460;2022-07-21T07:38:56;96636.22;;;23.10;51.40
47556;BME280;33291;46.222;26.460;2022-07-21T07:41:23;96631.28;;;23.14;50.55
47556;BME280;33291;46.222;26.460;2022-07-21T07:43:49;96649.66;;;23.22;50.61
47556;BME280;33291;46.222;26.460;2022-07-21T07:46:17;96627.47;;;23.35;49.75
47556;BME280;33291;46.222;26.460;2022-07-21T07:48:43;96649.84;;;23.46;49.89
47556;BME280;33291;46.222;26.460;2022-07-21T07:51:10;96651.72;;;23.45;48.29
47556;BME280;33291;46.222;26.460;2022-07-21T07:53:35;96648.91;;;23.40;49.10
47556;BME280;33291;46.222;26.460;2022-07-21T07:56:01;96652.59;;;23.39;49.37
47556;BME280;33291;46.222;26.460;2022-07-21T07:58:27;96633.53;;;23.42;49.71
47556;BME280;33291;46.222;26.460;2022-07-21T08:00:52;96646.72;;;23.55;49.18
47556;BME280;33291;46.222;26.460;2022-07-21T08:03:19;96637.88;;;23.62;48.81
47556;BME280;33291;46.222;26.460;2022-07-21T08:05:45;96636.34;;;23.72;49.35
47556;BME280;33291;46.222;26.460;2022-07-21T08:08:11;96640.75;;;23.85;48.39
47556;BME280;33291;46.222;26.460;2022-07-21T08:10:37;96646.59;;;23.94;48.37
47556;BME280;33291;46.222;26.460;2022-07-21T08:13:02;96636.63;;;24.08;47.07
47556;BME280;33291;46.222;26.460;2022-07-21T08:15:28;96639.44;;;24.13;46.74
47556;BME280;33291;46.222;26.460;2022-07-21T08:17:54;96633.06;;;24.14;47.43
47556;BME280;33291;46.222;26.460;2022-07-21T08:20:19;96628.94;;;24.18;46.40
47556;BME280;33291;46.222;26.460;2022-07-21T08:22:45;96628.81;;;24.13;46.36
47556;BME280;33291;46.222;26.460;2022-07-21T08:25:10;96634.44;;;24.23;46.52
47556;BME280;33291;46.222;26.460;2022-07-21T08:27:36;96633.97;;;24.26;46.38
47556;BME280;33291;46.222;26.460;2022-07-21T08:30:04;96601.81;;;24.09;45.82
47556;BME280;33291;46.222;26.460;2022-07-21T08:32:29;96639.31;;;24.26;46.50
47556;BME280;33291;46.222;26.460;2022-07-21T08:34:55;96645.06;;;24.42;46.01
47556;BME280;33291;46.222;26.460;2022-07-21T08:37:21;96645.63;;;24.44;45.39
47556;BME280;33291;46.222;26.460;2022-07-21T08:39:47;96646.31;;;24.39;45.29
47556;BME280;33291;46.222;26.460;2022-07-21T08:42:14;96632.69;;;24.29;44.26
47556;BME280;33291;46.222;26.460;2022-07-21T08:44:39;96637.34;;;24.34;44.73
47556;BME280;33291;46.222;26.460;2022-07-21T08:47:05;96644.91;;;24.37;45.50
47556;BME280;33291;46.222;26.460;2022-07-21T08:49:35;96632.19;;;24.39;44.79
47556;BME280;33291;46.222;26.460;2022-07-21T08:52:02;96630.97;;;24.53;45.23
47556;BME280;33291;46.222;26.460;2022-07-21T08:54:28;96624.94;;;24.64;44.62
47556;BME280;33291;46.222;26.460;2022-07-21T08:56:53;96624.75;;;24.78;43.60
47556;BME280;33291;46.222;26.460;2022-07-21T08:59:20;96610.53;;;24.84;44.66
47556;BME280;33291;46.222;26.460;2022-07-21T09:01:45;96621.69;;;25.05;43.23
47556;BME280;33291;46.222;26.460;2022-07-21T09:04:26;96625.38;;;24.92;43.78
47556;BME280;33291;46.222;26.460;2022-07-21T09:06:58;96624.31;;;24.93;43.26
47556;BME280;33291;46.222;26.460;2022-07-21T09:09:26;96609.03;;;24.88;43.66
47556;BME280;33291;46.222;26.460;2022-07-21T09:11:53;96618.19;;;24.92;43.15
47556;BME280;33291;46.222;26.460;2022-07-21T09:14:23;96612.97;;;24.97;44.32
47556;BME280;33291;46.222;26.460;2022-07-21T09:16:52;96607.47;;;25.11;44.10
47556;BME280;33291;46.222;26.460;2022-07-21T09:19:33;96605.06;;;25.21;43.22
47556;BME280;33291;46.222;26.460;2022-07-21T09:22:06;96600.28;;;25.23;43.90
47556;BME280;33291;46.222;26.460;2022-07-21T09:24:37;96602.78;;;25.36;42.87
47556;BME280;33291;46.222;26.460;2022-07-21T09:27:11;96597.59;;;25.42;42.81
47556;BME280;33291;46.222;26.460;2022-07-21T09:29:47;96591.78;;;25.45;42.69
47556;BME280;33291;46.222;26.460;2022-07-21T09:34:44;96583.53;;;25.58;41.27
47556;BME280;33291;46.222;26.460;2022-07-21T09:37:10;96584.13;;;25.60;41.24
47556;BME280;33291;46.222;26.460;2022-07-21T09:39:43;96579.47;;;25.67;40.43
47556;BME280;33291;46.222;26.460;2022-07-21T09:42:29;96590.97;;;25.68;39.99
47556;BME280;33291;46.222;26.460;2022-07-21T09:47:24;96592.34;;;25.82;40.33
47556;BME280;33291;46.222;26.460;2022-07-21T09:49:50;96590.94;;;25.92;39.90
47556;BME280;33291;46.222;26.460;2022-07-21T09:52:28;96581.41;;;25.96;39.69
47556;BME280;33291;46.222;26.460;2022-07-21T09:54:59;96574.94;;;26.03;39.84
47556;BME280;33291;46.222;26.460;2022-07-21T09:57:26;96576.22;;;26.01;40.03
47556;BME280;33291;46.222;26.460;2022-07-21T09:59:52;96569.84;;;26.02;39.66
47556;BME280;33291;46.222;26.460;2022-07-21T10:02:23;96572.75;;;26.00;39.27
47556;BME280;33291;46.222;26.460;2022-07-21T10:05:09;96583.41;;;26.00;38.97
47556;BME280;33291;46.222;26.460;2022-07-21T10:07:42;96574.59;;;26.00;39.66
47556;BME280;33291;46.222;26.460;2022-07-21T10:10:09;96586.66;;;26.02;40.66
47556;BME280;33291;46.222;26.460;2022-07-21T10:12:35;96573.09;;;26.04;40.46
47556;BME280;33291;46.222;26.460;2022-07-21T10:15:00;96577.13;;;26.06;40.34
47556;BME280;33291;46.222;26.460;2022-07-21T10:17:26;96584.41;;;26.23;39.42
47556;BME280;33291;46.222;26.460;2022-07-21T10:20:03;96586.03;;;26.24;39.22
47556;BME280;33291;46.222;26.460;2022-07-21T10:25:17;96578.97;;;26.18;39.69
47556;BME280;33291;46.222;26.460;2022-07-21T10:30:46;96574.97;;;26.32;39.82
47556;BME280;33291;46.222;26.460;2022-07-21T10:33:13;96566.69;;;26.46;38.66
47556;BME280;33291;46.222;26.460;2022-07-21T10:35:48;96564.00;;;26.46;38.42
47556;BME280;33291;46.222;26.460;2022-07-21T10:38:29;96558.59;;;26.40;38.55
47556;BME280;33291;46.222;26.460;2022-07-21T10:40:57;96562.84;;;26.41;38.12
47556;BME280;33291;46.222;26.460;2022-07-21T10:45:48;96557.44;;;26.36;38.13
47556;BME280;33291;46.222;26.460;2022-07-21T10:51:10;96558.47;;;26.35;38.30
47556;BME280;33291;46.222;26.460;2022-07-21T10:53:36;96547.56;;;26.37;38.31
47556;BME280;33291;46.222;26.460;2022-07-21T10:56:03;96560.31;;;26.47;38.46
47556;BME280;33291;46.222;26.460;2022-07-21T10:58:42;96560.63;;;26.50;38.20
47556;BME280;33291;46.222;26.460;2022-07-21T11:01:23;96560.38;;;26.52;37.93
47556;BME280;33291;46.222;26.460;2022-07-21T11:04:13;96554.47;;;26.50;36.95
47556;BME280;33291;46.222;26.460;2022-07-21T11:06:40;96558.19;;;26.49;37.36
47556;BME280;33291;46.222;26.460;2022-07-21T11:09:11;96553.19;;;26.52;37.00
47556;BME280;33291;46.222;26.460;2022-07-21T11:11:38;96548.25;;;26.61;37.08
47556;BME280;33291;46.222;26.460;2022-07-21T11:14:13;96542.34;;;26.71;36.72
47556;BME280;33291;46.222;26.460;2022-07-21T11:19:47;96544.84;;;26.77;36.44
47556;BME280;33291;46.222;26.460;2022-07-21T11:22:25;96536.28;;;26.75;35.75
47556;BME280;33291;46.222;26.460;2022-07-21T11:27:25;96547.28;;;26.79;35.02
47556;BME280;33291;46.222;26.460;2022-07-21T11:29:58;96541.50;;;26.70;35.50
47556;BME280;33291;46.222;26.460;2022-07-21T11:32:24;96546.97;;;26.75;36.31
47556;BME280;33291;46.222;26.460;2022-07-21T11:34:51;96544.91;;;26.83;36.12
47556;BME280;33291;46.222;26.460;2022-07-21T11:37:26;96547.09;;;26.86;35.52
47556;BME280;33291;46.222;26.460;2022-07-21T11:39:51;96544.13;;;26.82;35.84
47556;BME280;33291;46.222;26.460;2022-07-21T11:42:17;96548.13;;;26.97;35.11
47556;BME280;33291;46.222;26.460;2022-07-21T11:44:43;96539.75;;;26.93;34.90
47556;BME280;33291;46.222;26.460;2022-07-21T11:47:12;96546.25;;;26.97;35.52
47556;BME280;33291;46.222;26.460;2022-07-21T11:49:39;96536.69;;;27.01;34.57
47556;BME280;33291;46.222;26.460;2022-07-21T11:52:08;96533.03;;;26.90;34.95
47556;BME280;33291;46.222;26.460;2022-07-21T11:54:48;96534.75;;;26.97;34.63
47556;BME280;33291;46.222;26.460;2022-07-21T11:57:16;96526.94;;;26.95;35.43
47556;BME280;33291;46.222;26.460;2022-07-21T11:59:42;96528.69;;;27.01;34.95
47556;BME280;33291;46.222;26.460;2022-07-21T12:02:14;96539.59;;;27.00;34.72
47556;BME280;33291;46.222;26.460;2022-07-21T12:07:28;96513.13;;;26.98;34.09
47556;BME280;33291;46.222;26.460;2022-07-21T12:09:58;96518.72;;;26.97;34.99
47556;BME280;33291;46.222;26.460;2022-07-21T12:15:24;96518.06;;;27.06;34.80
47556;BME280;33291;46.222;26.460;2022-07-21T12:17:55;96522.84;;;27.04;35.54
47556;BME280;33291;46.222;26.460;2022-07-21T12:20:30;96515.38;;;27.06;35.06
47556;BME280;33291;46.222;26.460;2022-07-21T12:22:58;96511.91;;;27.06;34.40
47556;BME280;33291;46.222;26.460;2022-07-21T12:25:38;96507.13;;;27.08;34.59
47556;BME280;33291;46.222;26.460;2022-07-21T12:28:05;96502.00;;;27.06;34.37
47556;BME280;33291;46.222;26.460;2022-07-21T12:35:31;96495.25;;;27.21;33.88
47556;BME280;33291;46.222;26.460;2022-07-21T12:38:10;96490.06;;;27.31;34.12
47556;BME280;33291;46.222;26.460;2022-07-21T12:40:40;96503.06;;;27.39;34.38
47556;BME280;33291;46.222;26.460;2022-07-21T12:43:14;96486.53;;;27.42;33.13
47556;BME280;33291;46.222;26.460;2022-07-21T12:45:55;96497.28;;;27.47;32.50
47556;BME280;33291;46.222;26.460;2022-07-21T12:48:24;96497.28;;;27.47;32.32
47556;BME280;33291;46.222;26.460;2022-07-21T12:50:58;96487.88;;;27.45;32.04
47556;BME280;33291;46.222;26.460;2022-07-21T12:53:24;96485.13;;;27.40;32.73
47556;BME280;33291;46.222;26.460;2022-07-21T12:55:50;96491.88;;;27.42;32.61
47556;BME280;33291;46.222;26.460;2022-07-21T12:58:15;96492.66;;;27.43;32.48
47556;BME280;33291;46.222;26.460;2022-07-21T13:00:41;96479.53;;;27.41;33.26
47556;BME280;33291;46.222;26.460;2022-07-21T13:03:06;96493.06;;;27.52;33.72
47556;BME280;33291;46.222;26.460;2022-07-21T13:05:32;96487.75;;;27.57;33.08
47556;BME280;33291;46.222;26.460;2022-07-21T13:07:58;96487.41;;;27.70;32.00
47556;BME280;33291;46.222;26.460;2022-07-21T13:10:23;96488.22;;;27.71;32.34
47556;BME280;33291;46.222;26.460;2022-07-21T13:12:49;96487.41;;;27.70;32.00
47556;BME280;33291;46.222;26.460;2022-07-21T13:15:15;96477.41;;;27.60;32.41
47556;BME280;33291;46.222;26.460;2022-07-21T13:17:40;96480.94;;;27.66;32.34
47556;BME280;33291;46.222;26.460;2022-07-21T13:20:07;96479.38;;;27.70;32.10
47556;BME280;33291;46.222;26.460;2022-07-21T13:22:32;96477.84;;;27.74;31.36